Terminal Aerodrome Forecast
Issued by NWS

Home | Current Version | Previous Version | Graphics & Text | Print | Product List | Glossary On
Versions: 1 2 3 4 5 6 7 8 9 10 11 12 13 14 15 16
152
FTUS43 KICT 142345
TAFSLN
TAF
KSLN 142345Z 1500/1524 18008KT P6SM FEW050 SCT150
     FM150800 16004KT P6SM SCT150
     FM151100 17006KT 4SM BR SCT004
     FM151400 16008KT P6SM SCT015
     FM151700 16011KT P6SM SCT045=

USA.gov is the U.S. government's official web portal to all federal, state and local government web resources and services.